sensor_id;sensor_type;location;lat;lon;timestamp;pressure;altitude;pressure_sealevel;temperature;humidity
5679;BME280;2862;52.560;13.566;2024-02-14T00:01:48;101039.31;;;3.82;100.00
5679;BME280;2862;52.560;13.566;2024-02-14T00:11:52;101036.91;;;3.78;100.00
5679;BME280;2862;52.560;13.566;2024-02-14T00:22:01;101036.25;;;3.72;100.00
5679;BME280;2862;52.560;13.566;2024-02-14T00:32:07;101040.31;;;3.62;100.00
5679;BME280;2862;52.560;13.566;2024-02-14T00:42:12;101032.84;;;3.70;100.00
5679;BME280;2862;52.560;13.566;2024-02-14T00:52:17;101032.66;;;3.39;100.00
5679;BME280;2862;52.560;13.566;2024-02-14T01:02:24;101037.66;;;3.45;100.00
5679;BME280;2862;52.560;13.566;2024-02-14T01:12:28;101042.22;;;3.41;100.00
5679;BME280;2862;52.560;13.566;2024-02-14T01:22:34;101030.16;;;3.36;100.00
5679;BME280;2862;52.560;13.566;2024-02-14T01:32:37;101026.56;;;3.56;100.00
5679;BME280;2862;52.560;13.566;2024-02-14T01:42:42;101020.94;;;3.44;100.00
5679;BME280;2862;52.560;13.566;2024-02-14T01:52:45;101013.91;;;3.43;100.00
5679;BME280;2862;52.560;13.566;2024-02-14T02:02:49;101009.56;;;3.42;100.00
5679;BME280;2862;52.560;13.566;2024-02-14T02:12:58;100993.94;;;3.38;100.00
5679;BME280;2862;52.560;13.566;2024-02-14T02:23:03;100986.63;;;3.43;100.00
5679;BME280;2862;52.560;13.566;2024-02-14T02:33:06;100987.78;;;3.37;100.00
5679;BME280;2862;52.560;13.566;2024-02-14T02:43:11;100976.88;;;3.26;100.00
5679;BME280;2862;52.560;13.566;2024-02-14T02:53:14;100973.16;;;3.30;100.00
5679;BME280;2862;52.560;13.566;2024-02-14T03:03:18;100972.53;;;3.25;100.00
5679;BME280;2862;52.560;13.566;2024-02-14T03:13:21;100962.19;;;3.20;100.00
5679;BME280;2862;52.560;13.566;2024-02-14T03:23:26;100950.16;;;2.96;100.00
5679;BME280;2862;52.560;13.566;2024-02-14T03:33:30;100958.44;;;3.07;100.00
5679;BME280;2862;52.560;13.566;2024-02-14T03:43:34;100951.81;;;2.80;100.00
5679;BME280;2862;52.560;13.566;2024-02-14T03:53:38;100940.94;;;2.87;100.00
5679;BME280;2862;52.560;13.566;2024-02-14T04:03:42;100926.03;;;3.04;100.00
5679;BME280;2862;52.560;13.566;2024-02-14T04:13:45;100929.72;;;2.82;100.00
5679;BME280;2862;52.560;13.566;2024-02-14T04:23:49;100924.16;;;2.88;100.00
5679;BME280;2862;52.560;13.566;2024-02-14T04:33:52;100942.25;;;2.96;100.00
5679;BME280;2862;52.560;13.566;2024-02-14T04:43:57;100934.03;;;3.02;100.00
5679;BME280;2862;52.560;13.566;2024-02-14T04:54:00;100920.53;;;3.26;100.00
5679;BME280;2862;52.560;13.566;2024-02-14T05:04:04;100909.19;;;3.24;100.00
5679;BME280;2862;52.560;13.566;2024-02-14T05:14:08;100898.94;;;3.35;100.00
5679;BME280;2862;52.560;13.566;2024-02-14T05:24:13;100883.31;;;3.30;100.00
5679;BME280;2862;52.560;13.566;2024-02-14T05:34:16;100883.41;;;3.46;100.00
5679;BME280;2862;52.560;13.566;2024-02-14T05:44:21;100866.69;;;3.63;100.00
5679;BME280;2862;52.560;13.566;2024-02-14T05:54:24;100856.00;;;3.64;100.00
5679;BME280;2862;52.560;13.566;2024-02-14T06:04:29;100851.75;;;3.62;100.00
5679;BME280;2862;52.560;13.566;2024-02-14T06:14:32;100852.09;;;3.71;100.00
5679;BME280;2862;52.560;13.566;2024-02-14T06:24:38;100858.28;;;3.88;100.00
5679;BME280;2862;52.560;13.566;2024-02-14T06:34:41;100863.81;;;3.83;100.00
5679;BME280;2862;52.560;13.566;2024-02-14T06:44:45;100854.31;;;3.96;100.00
5679;BME280;2862;52.560;13.566;2024-02-14T06:54:49;100845.00;;;4.05;100.00
5679;BME280;2862;52.560;13.566;2024-02-14T07:04:53;100842.28;;;3.91;100.00
5679;BME280;2862;52.560;13.566;2024-02-14T07:14:56;100832.97;;;3.99;100.00
5679;BME280;2862;52.560;13.566;2024-02-14T07:25:00;100821.09;;;4.07;100.00
5679;BME280;2862;52.560;13.566;2024-02-14T07:35:04;100832.56;;;4.39;100.00
5679;BME280;2862;52.560;13.566;2024-02-14T07:45:10;100849.81;;;4.77;100.00
5679;BME280;2862;52.560;13.566;2024-02-14T07:55:13;100844.19;;;4.98;100.00
5679;BME280;2862;52.560;13.566;2024-02-14T08:05:18;100834.78;;;5.08;100.00
5679;BME280;2862;52.560;13.566;2024-02-14T08:15:21;100830.44;;;5.66;100.00
5679;BME280;2862;52.560;13.566;2024-02-14T08:25:25;100821.34;;;5.84;100.00
5679;BME280;2862;52.560;13.566;2024-02-14T08:35:28;100807.81;;;5.74;100.00
5679;BME280;2862;52.560;13.566;2024-02-14T08:45:33;100808.19;;;5.82;100.00
5679;BME280;2862;52.560;13.566;2024-02-14T08:55:36;100815.56;;;5.77;100.00
5679;BME280;2862;52.560;13.566;2024-02-14T09:05:42;100807.44;;;5.80;100.00
5679;BME280;2862;52.560;13.566;2024-02-14T09:15:44;100807.50;;;5.79;100.00
5679;BME280;2862;52.560;13.566;2024-02-14T09:25:48;100807.44;;;5.80;100.00
5679;BME280;2862;52.560;13.566;2024-02-14T09:35:51;100803.44;;;5.88;100.00
5679;BME280;2862;52.560;13.566;2024-02-14T09:45:56;100802.97;;;5.95;100.00
5679;BME280;2862;52.560;13.566;2024-02-14T09:55:59;100811.03;;;6.08;100.00
5679;BME280;2862;52.560;13.566;2024-02-14T10:06:04;100799.09;;;6.01;100.00
5679;BME280;2862;52.560;13.566;2024-02-14T10:16:08;100800.22;;;6.11;100.00
5679;BME280;2862;52.560;13.566;2024-02-14T10:26:13;100790.34;;;6.13;100.00
5679;BME280;2862;52.560;13.566;2024-02-14T10:36:17;100781.97;;;6.60;100.00
5679;BME280;2862;52.560;13.566;2024-02-14T10:46:23;100776.69;;;6.73;100.00
5679;BME280;2862;52.560;13.566;2024-02-14T10:56:28;100767.25;;;6.82;100.00
5679;BME280;2862;52.560;13.566;2024-02-14T11:06:45;100759.16;;;7.23;100.00
5679;BME280;2862;52.560;13.566;2024-02-14T11:16:48;100749.44;;;7.60;100.00
5679;BME280;2862;52.560;13.566;2024-02-14T11:26:57;100740.56;;;8.22;100.00
5679;BME280;2862;52.560;13.566;2024-02-14T11:37:02;100740.19;;;8.15;100.00
5679;BME280;2862;52.560;13.566;2024-02-14T11:47:06;100745.09;;;7.59;100.00
5679;BME280;2862;52.560;13.566;2024-02-14T11:57:09;100740.72;;;7.33;100.00
5679;BME280;2862;52.560;13.566;2024-02-14T12:07:14;100750.50;;;7.32;100.00
5679;BME280;2862;52.560;13.566;2024-02-14T12:17:17;100744.56;;;7.41;100.00
5679;BME280;2862;52.560;13.566;2024-02-14T12:27:23;100740.00;;;7.31;100.00
5679;BME280;2862;52.560;13.566;2024-02-14T12:37:25;100736.88;;;7.50;100.00
5679;BME280;2862;52.560;13.566;2024-02-14T12:47:30;100743.69;;;7.66;100.00
5679;BME280;2862;52.560;13.566;2024-02-14T12:57:36;100744.75;;;7.64;100.00
5679;BME280;2862;52.560;13.566;2024-02-14T13:07:41;100737.72;;;7.76;100.00
5679;BME280;2862;52.560;13.566;2024-02-14T13:17:46;100744.72;;;7.89;100.00
5679;BME280;2862;52.560;13.566;2024-02-14T13:27:50;100748.63;;;7.96;100.00
5679;BME280;2862;52.560;13.566;2024-02-14T13:37:54;100745.19;;;8.07;100.00
5679;BME280;2862;52.560;13.566;2024-02-14T13:48:03;100748.63;;;8.09;100.00
5679;BME280;2862;52.560;13.566;2024-02-14T13:58:06;100749.22;;;8.13;100.00
5679;BME280;2862;52.560;13.566;2024-02-14T14:08:17;100757.53;;;8.21;100.00
5679;BME280;2862;52.560;13.566;2024-02-14T14:18:20;100761.34;;;8.17;100.00
5679;BME280;2862;52.560;13.566;2024-02-14T14:28:24;100766.25;;;8.23;100.00
5679;BME280;2862;52.560;13.566;2024-02-14T14:38:27;100761.88;;;8.22;100.00
5679;BME280;2862;52.560;13.566;2024-02-14T14:48:33;100769.94;;;8.33;100.00
5679;BME280;2862;52.560;13.566;2024-02-14T14:58:36;100768.88;;;8.36;100.00
5679;BME280;2862;52.560;13.566;2024-02-14T15:08:40;100771.22;;;8.40;100.00
5679;BME280;2862;52.560;13.566;2024-02-14T15:18:45;100766.66;;;8.54;100.00
5679;BME280;2862;52.560;13.566;2024-02-14T15:28:53;100779.59;;;8.47;100.00
5679;BME280;2862;52.560;13.566;2024-02-14T15:39:21;100786.81;;;8.58;100.00
5679;BME280;2862;52.560;13.566;2024-02-14T15:49:28;100789.66;;;8.67;100.00
5679;BME280;2862;52.560;13.566;2024-02-14T15:59:32;100796.03;;;8.65;100.00
5679;BME280;2862;52.560;13.566;2024-02-14T16:09:40;100804.88;;;8.65;100.00
5679;BME280;2862;52.560;13.566;2024-02-14T16:19:47;100798.03;;;8.74;100.00
5679;BME280;2862;52.560;13.566;2024-02-14T16:29:58;100808.59;;;8.75;100.00
5679;BME280;2862;52.560;13.566;2024-02-14T16:40:02;100808.25;;;8.80;100.00
5679;BME280;2862;52.560;13.566;2024-02-14T16:50:13;100821.25;;;8.85;100.00
5679;BME280;2862;52.560;13.566;2024-02-14T17:00:18;100823.78;;;8.86;100.00
5679;BME280;2862;52.560;13.566;2024-02-14T17:10:23;100826.13;;;8.91;100.00
5679;BME280;2862;52.560;13.566;2024-02-14T17:20:27;100821.63;;;8.91;100.00
5679;BME280;2862;52.560;13.566;2024-02-14T17:30:31;100833.66;;;8.97;100.00
5679;BME280;2862;52.560;13.566;2024-02-14T17:40:34;100834.72;;;8.94;100.00
5679;BME280;2862;52.560;13.566;2024-02-14T17:50:38;100835.09;;;8.90;100.00
5679;BME280;2862;52.560;13.566;2024-02-14T18:00:42;100834.97;;;8.91;100.00
5679;BME280;2862;52.560;13.566;2024-02-14T18:10:47;100848.69;;;8.98;100.00
5679;BME280;2862;52.560;13.566;2024-02-14T18:20:50;100846.03;;;8.98;100.00
5679;BME280;2862;52.560;13.566;2024-02-14T18:30:55;100842.72;;;8.94;100.00
5679;BME280;2862;52.560;13.566;2024-02-14T18:40:58;100838.66;;;9.01;100.00
5679;BME280;2862;52.560;13.566;2024-02-14T18:51:03;100834.75;;;9.05;100.00
5679;BME280;2862;52.560;13.566;2024-02-14T19:01:05;100829.22;;;9.09;100.00
5679;BME280;2862;52.560;13.566;2024-02-14T19:11:10;100836.63;;;9.16;100.00
5679;BME280;2862;52.560;13.566;2024-02-14T19:21:17;100847.81;;;9.21;100.00
5679;BME280;2862;52.560;13.566;2024-02-14T19:31:21;100849.28;;;9.25;100.00
5679;BME280;2862;52.560;13.566;2024-02-14T19:41:24;100851.69;;;9.28;100.00
5679;BME280;2862;52.560;13.566;2024-02-14T19:51:28;100863.97;;;9.31;100.00
5679;BME280;2862;52.560;13.566;2024-02-14T20:01:31;100863.63;;;9.36;100.00
5679;BME280;2862;52.560;13.566;2024-02-14T20:11:36;100861.94;;;9.46;100.00
5679;BME280;2862;52.560;13.566;2024-02-14T20:21:38;100858.34;;;9.47;100.00
5679;BME280;2862;52.560;13.566;2024-02-14T20:31:42;100856.75;;;9.55;100.00
5679;BME280;2862;52.560;13.566;2024-02-14T20:41:45;100862.09;;;9.55;100.00
5679;BME280;2862;52.560;13.566;2024-02-14T20:51:49;100868.16;;;9.57;100.00
5679;BME280;2862;52.560;13.566;2024-02-14T21:01:53;100861.28;;;9.77;100.00
5679;BME280;2862;52.560;13.566;2024-02-14T21:11:57;100868.75;;;9.50;100.00
5679;BME280;2862;52.560;13.566;2024-02-14T21:22:01;100880.53;;;9.47;100.00
5679;BME280;2862;52.560;13.566;2024-02-14T21:32:05;100873.72;;;9.43;100.00
5679;BME280;2862;52.560;13.566;2024-02-14T21:42:08;100870.31;;;9.41;100.00
5679;BME280;2862;52.560;13.566;2024-02-14T21:52:12;100874.31;;;9.36;100.00
5679;BME280;2862;52.560;13.566;2024-02-14T22:02:17;100874.28;;;9.24;100.00
5679;BME280;2862;52.560;13.566;2024-02-14T22:12:22;100862.56;;;9.14;100.00
5679;BME280;2862;52.560;13.566;2024-02-14T22:22:24;100865.59;;;9.10;100.00
5679;BME280;2862;52.560;13.566;2024-02-14T22:32:31;100859.88;;;9.03;100.00
5679;BME280;2862;52.560;13.566;2024-02-14T22:42:35;100868.00;;;9.01;100.00
5679;BME280;2862;52.560;13.566;2024-02-14T22:52:40;100868.97;;;9.00;100.00
5679;BME280;2862;52.560;13.566;2024-02-14T23:02:43;100878.41;;;9.04;100.00
5679;BME280;2862;52.560;13.566;2024-02-14T23:12:47;100870.75;;;9.00;100.00
5679;BME280;2862;52.560;13.566;2024-02-14T23:22:49;100860.59;;;9.05;100.00
5679;BME280;2862;52.560;13.566;2024-02-14T23:32:53;100854.75;;;9.00;100.00
5679;BME280;2862;52.560;13.566;2024-02-14T23:42:58;100846.88;;;8.98;100.00
5679;BME280;2862;52.560;13.566;2024-02-14T23:53:03;100851.00;;;9.02;100.00
